createdAt,value
2019-03-09T00:00:15.272Z,49.33
2019-03-09T00:02:48.833Z,50.48
2019-03-09T00:05:23.782Z,49.58
2019-03-09T00:07:58.589Z,50.83
2019-03-09T00:10:31.888Z,50.57
2019-03-09T00:13:05.683Z,51.27
2019-03-09T00:15:41.108Z,51.70
2019-03-09T00:18:14.626Z,51.10
2019-03-09T00:20:48.436Z,50.17
2019-03-09T00:23:23.559Z,51.10
2019-03-09T00:25:58.313Z,51.17
2019-03-09T00:28:33.611Z,53.17
2019-03-09T00:31:07.218Z,54.30
2019-03-09T00:33:40.828Z,54.50
2019-03-09T00:36:16.263Z,54.90
2019-03-09T00:38:49.608Z,55.00
2019-03-09T00:41:23.917Z,53.68
2019-03-09T00:43:57.935Z,51.23
2019-03-09T00:46:31.755Z,48.97
2019-03-09T00:49:05.593Z,51.30
2019-03-09T00:51:39.443Z,49.13
2019-03-09T00:54:15.282Z,45.37
2019-03-09T00:56:49.434Z,44.53
2019-03-09T00:59:24.064Z,45.35
2019-03-09T01:02:00.660Z,48.40
2019-03-09T01:04:36.303Z,47.00
2019-03-09T01:07:10.790Z,40.33
2019-03-09T01:09:45.268Z,41.37
2019-03-09T01:12:21.408Z,41.13
2019-03-09T01:14:57.758Z,34.60
2019-03-09T01:17:31.815Z,34.47
2019-03-09T01:20:06.608Z,32.83
2019-03-09T01:22:41.659Z,32.70
2019-03-09T01:25:18.220Z,31.33
2019-03-09T01:27:52.208Z,30.23
2019-03-09T01:30:28.042Z,28.47
2019-03-09T01:33:02.555Z,26.55
2019-03-09T01:35:37.367Z,26.77
2019-03-09T01:38:14.069Z,23.73
2019-03-09T01:40:50.437Z,25.60
2019-03-09T01:43:25.801Z,25.45
2019-03-09T01:46:02.199Z,26.18
2019-03-09T01:48:37.154Z,23.63
2019-03-09T01:51:11.651Z,24.57
2019-03-09T01:53:45.724Z,27.10
2019-03-09T01:56:19.676Z,25.13
2019-03-09T01:58:54.822Z,23.77
2019-03-09T02:01:28.693Z,22.37
2019-03-09T02:04:02.204Z,19.40
2019-03-09T02:06:36.242Z,16.02
2019-03-09T02:09:11.474Z,15.00
2019-03-09T02:11:45.773Z,12.27
2019-03-09T02:14:20.371Z,10.97
2019-03-09T02:16:54.718Z,9.95
2019-03-09T02:19:29.148Z,10.20
2019-03-09T02:22:08.613Z,10.10
2019-03-09T02:24:43.942Z,9.37
2019-03-09T02:27:18.854Z,8.83
2019-03-09T02:29:52.797Z,9.07
2019-03-09T02:32:27.426Z,10.57
2019-03-09T02:35:05.294Z,9.85
2019-03-09T02:37:40.321Z,9.33
2019-03-09T02:40:15.580Z,7.60
2019-03-09T02:42:51.442Z,7.90
2019-03-09T02:45:27.113Z,7.87
2019-03-09T02:48:02.790Z,8.13
2019-03-09T02:50:38.586Z,6.90
2019-03-09T02:53:16.193Z,6.95
2019-03-09T02:55:55.180Z,7.40
2019-03-09T02:58:30.471Z,7.43
2019-03-09T03:01:06.490Z,7.30
2019-03-09T03:03:46.488Z,7.50
2019-03-09T03:06:26.430Z,7.07
2019-03-09T03:09:02.276Z,7.27
2019-03-09T03:11:37.660Z,7.58
2019-03-09T03:14:15.251Z,7.40
2019-03-09T03:16:51.608Z,6.73
2019-03-09T03:19:27.088Z,7.15
2019-03-09T03:22:01.757Z,7.33
2019-03-09T03:24:37.393Z,7.73
2019-03-09T03:27:12.147Z,8.33
2019-03-09T03:29:46.781Z,7.93
2019-03-09T03:32:21.179Z,8.60
2019-03-09T03:34:55.804Z,8.37
2019-03-09T03:37:36.208Z,8.33
2019-03-09T03:40:17.290Z,8.70
2019-03-09T03:42:51.306Z,8.65
2019-03-09T03:45:26.537Z,8.03
2019-03-09T03:48:01.327Z,8.20
2019-03-09T03:50:35.390Z,7.33
2019-03-09T03:53:11.225Z,7.40
2019-03-09T03:55:44.746Z,7.30
2019-03-09T03:58:20.305Z,6.87
2019-03-09T04:00:55.742Z,5.57
2019-03-09T04:03:31.617Z,7.58
2019-03-09T04:06:25.492Z,7.28
2019-03-09T04:08:59.912Z,7.90
2019-03-09T04:11:34.436Z,7.00
2019-03-09T04:14:11.917Z,6.87
2019-03-09T04:16:48.598Z,7.83
2019-03-09T04:19:23.915Z,7.40
2019-03-09T04:21:59.629Z,7.13
2019-03-09T04:24:36.288Z,7.15
2019-03-09T04:27:11.499Z,7.43
2019-03-09T04:29:46.493Z,7.73
2019-03-09T04:32:23.545Z,7.80
2019-03-09T04:35:03.613Z,6.60
2019-03-09T04:37:38.717Z,7.07
2019-03-09T04:40:15.672Z,6.43
2019-03-09T04:42:52.458Z,6.77
2019-03-09T04:45:29.352Z,7.67
2019-03-09T04:48:04.410Z,7.53
2019-03-09T04:50:43.041Z,7.63
2019-03-09T04:53:18.165Z,6.83
2019-03-09T04:55:55.060Z,7.33
2019-03-09T04:58:30.558Z,7.57
2019-03-09T05:01:04.552Z,7.70
2019-03-09T05:03:38.577Z,7.53
2019-03-09T05:06:12.702Z,7.33
2019-03-09T05:09:06.927Z,8.43
2019-03-09T05:11:52.157Z,7.93
2019-03-09T05:14:27.085Z,8.13
2019-03-09T05:17:06.553Z,8.65
2019-03-09T05:19:41.318Z,8.03
2019-03-09T05:22:19.679Z,7.22
2019-03-09T05:24:56.013Z,7.40
2019-03-09T05:27:30.899Z,7.60
2019-03-09T05:30:11.484Z,7.53
2019-03-09T05:32:46.655Z,6.60
2019-03-09T05:35:22.467Z,7.43
2019-03-09T05:37:57.362Z,6.90
2019-03-09T05:40:37.782Z,7.40
2019-03-09T05:43:16.574Z,7.15
2019-03-09T05:45:52.920Z,7.10
2019-03-09T05:48:27.621Z,6.73
2019-03-09T05:51:02.097Z,6.42
2019-03-09T05:53:37.502Z,6.08
2019-03-09T05:56:14.508Z,6.83
2019-03-09T05:58:50.600Z,6.42
2019-03-09T06:01:27.660Z,6.37
2019-03-09T06:04:03.661Z,5.97
2019-03-09T06:06:38.481Z,5.67
2019-03-09T06:09:13.539Z,5.03
2019-03-09T06:11:52.001Z,5.03
2019-03-09T06:14:30.508Z,5.30
2019-03-09T06:17:07.809Z,5.80
2019-03-09T06:19:43.075Z,5.83
2019-03-09T06:22:23.069Z,5.80
2019-03-09T06:24:59.233Z,5.67
2019-03-09T06:27:36.391Z,5.78
2019-03-09T06:30:15.150Z,5.30
2019-03-09T06:33:14.709Z,5.27
2019-03-09T06:35:53.183Z,5.17
2019-03-09T06:38:43.777Z,5.23
2019-03-09T06:41:41.922Z,5.70
2019-03-09T06:44:19.980Z,5.73
2019-03-09T06:46:55.192Z,5.70
2019-03-09T06:49:31.290Z,5.87
2019-03-09T06:52:09.624Z,6.12
2019-03-09T06:54:44.946Z,6.23
2019-03-09T06:57:22.166Z,5.53
2019-03-09T07:00:02.199Z,5.80
2019-03-09T07:02:39.887Z,5.92
2019-03-09T07:05:18.043Z,5.60
2019-03-09T07:07:53.082Z,6.37
2019-03-09T07:10:28.536Z,6.20
2019-03-09T07:13:03.783Z,5.40
2019-03-09T07:15:44.548Z,5.90
2019-03-09T07:18:26.202Z,5.93
2019-03-09T07:21:08.913Z,5.90
2019-03-09T07:23:57.174Z,6.30
2019-03-09T07:26:39.930Z,5.63
2019-03-09T07:29:17.789Z,6.07
2019-03-09T07:31:52.948Z,5.95
2019-03-09T07:34:31.398Z,6.20
2019-03-09T07:37:12.667Z,5.80
2019-03-09T07:39:51.481Z,6.10
2019-03-09T07:42:30.369Z,7.10
2019-03-09T07:45:07.478Z,5.85
2019-03-09T07:47:48.698Z,5.60
2019-03-09T07:50:25.655Z,5.87
2019-03-09T07:53:03.136Z,6.20
2019-03-09T07:55:47.175Z,5.67
2019-03-09T07:58:27.182Z,5.30
2019-03-09T08:01:02.689Z,5.60
2019-03-09T08:03:38.165Z,5.40
2019-03-09T08:06:16.038Z,5.37
2019-03-09T08:09:02.953Z,5.70
2019-03-09T08:11:40.254Z,5.20
2019-03-09T08:14:27.181Z,5.25
2019-03-09T08:17:05.691Z,5.93
2019-03-09T08:19:43.661Z,5.03
2019-03-09T08:22:23.284Z,5.20
2019-03-09T08:25:03.579Z,5.23
2019-03-09T08:27:43.372Z,5.20
2019-03-09T08:30:20.584Z,5.70
2019-03-09T08:32:57.666Z,5.60
2019-03-09T08:35:32.994Z,7.77
2019-03-09T08:38:08.461Z,7.50
2019-03-09T08:40:44.572Z,6.13
2019-03-09T08:43:19.467Z,6.30
2019-03-09T08:45:54.918Z,7.37
2019-03-09T08:48:32.143Z,7.05
2019-03-09T08:51:10.061Z,7.10
2019-03-09T08:53:47.109Z,7.10
2019-03-09T08:56:22.560Z,6.90
2019-03-09T08:58:59.427Z,6.53
2019-03-09T09:01:35.718Z,6.63
2019-03-09T09:04:16.765Z,6.60
2019-03-09T09:06:55.847Z,6.60
2019-03-09T09:09:31.890Z,6.53
2019-03-09T09:12:08.818Z,5.95
2019-03-09T09:14:43.787Z,6.47
2019-03-09T09:17:21.267Z,6.40
2019-03-09T09:19:56.198Z,6.80
2019-03-09T09:22:31.346Z,6.28
2019-03-09T09:25:11.203Z,6.27
2019-03-09T09:27:52.699Z,6.40
2019-03-09T09:30:29.779Z,6.23
2019-03-09T09:33:10.283Z,6.30
2019-03-09T09:35:45.543Z,6.30
2019-03-09T09:38:20.802Z,6.07
2019-03-09T09:41:01.452Z,5.83
2019-03-09T09:43:37.591Z,5.33
2019-03-09T09:46:14.724Z,5.30
2019-03-09T09:48:53.219Z,5.83
2019-03-09T09:51:30.912Z,5.47
2019-03-09T09:54:16.780Z,6.67
2019-03-09T09:57:01.777Z,6.12
2019-03-09T09:59:46.964Z,6.33
2019-03-09T10:02:27.508Z,6.78
2019-03-09T10:05:09.613Z,6.65
2019-03-09T10:07:48.360Z,6.83
2019-03-09T10:10:24.961Z,6.43
2019-03-09T10:13:02.136Z,6.20
2019-03-09T10:15:39.398Z,6.60
2019-03-09T10:18:16.166Z,6.30
2019-03-09T10:20:51.324Z,6.47
2019-03-09T10:23:26.570Z,7.00
2019-03-09T10:26:08.101Z,7.20
2019-03-09T10:28:43.635Z,7.40
2019-03-09T10:31:20.562Z,8.57
2019-03-09T10:33:55.836Z,9.53
2019-03-09T10:36:31.119Z,10.10
2019-03-09T10:39:07.389Z,9.70
2019-03-09T10:41:48.149Z,10.90
2019-03-09T10:44:25.561Z,10.90
2019-03-09T10:47:02.409Z,10.70
2019-03-09T10:50:03.515Z,11.10
2019-03-09T10:52:41.530Z,11.33
2019-03-09T10:55:23.621Z,10.20
2019-03-09T10:58:03.225Z,11.28
2019-03-09T11:00:45.987Z,11.45
2019-03-09T11:03:24.428Z,11.18
2019-03-09T11:05:58.948Z,11.05
2019-03-09T11:08:37.249Z,11.90
2019-03-09T11:11:14.252Z,11.80
2019-03-09T11:13:52.224Z,12.70
2019-03-09T11:16:30.706Z,12.67
2019-03-09T11:19:11.962Z,13.10
2019-03-09T11:21:51.577Z,12.50
2019-03-09T11:24:26.651Z,12.07
2019-03-09T11:27:01.919Z,12.10
2019-03-09T11:29:39.009Z,11.97
2019-03-09T11:32:15.102Z,12.20
2019-03-09T11:34:52.643Z,12.80
2019-03-09T11:37:32.510Z,14.10
2019-03-09T11:40:07.760Z,13.77
2019-03-09T11:42:47.669Z,12.67
2019-03-09T11:45:27.894Z,13.37
2019-03-09T11:48:07.648Z,12.73
2019-03-09T11:50:44.684Z,13.23
2019-03-09T11:53:21.883Z,14.10
2019-03-09T11:56:00.294Z,13.43
2019-03-09T11:58:45.905Z,14.13
2019-03-09T12:01:21.906Z,14.40
2019-03-09T12:03:57.238Z,14.43
2019-03-09T12:06:34.613Z,14.30
2019-03-09T12:09:13.032Z,14.63
2019-03-09T12:14:41.615Z,15.00
2019-03-09T12:17:16.891Z,15.73
2019-03-09T12:19:57.853Z,14.70
2019-03-09T12:22:35.062Z,15.90
2019-03-09T12:25:12.430Z,17.30
2019-03-09T12:28:00.551Z,16.00
2019-03-09T12:30:35.949Z,14.57
2019-03-09T12:33:14.691Z,15.57
2019-03-09T12:35:50.268Z,15.90
2019-03-09T12:38:37.794Z,15.10
2019-03-09T12:41:15.358Z,15.43
2019-03-09T12:43:50.735Z,14.93
2019-03-09T12:46:27.969Z,16.80
2019-03-09T12:49:08.448Z,15.13
2019-03-09T12:51:45.076Z,15.40
2019-03-09T12:54:22.405Z,14.80
2019-03-09T12:56:58.491Z,14.17
2019-03-09T12:59:33.993Z,13.93
2019-03-09T13:02:11.342Z,13.87
2019-03-09T13:04:48.372Z,13.08
2019-03-09T13:07:24.365Z,13.60
2019-03-09T13:10:05.309Z,13.73
2019-03-09T13:12:41.459Z,12.90
2019-03-09T13:15:23.506Z,13.07
2019-03-09T13:20:52.734Z,13.72
2019-03-09T13:23:31.251Z,14.63
2019-03-09T13:26:17.384Z,13.60
2019-03-09T13:28:54.596Z,13.77
2019-03-09T13:34:13.123Z,13.48
2019-03-09T13:39:51.060Z,14.27
2019-03-09T13:42:31.991Z,15.17
2019-03-09T13:45:13.031Z,16.20
2019-03-09T13:47:50.444Z,15.23
2019-03-09T13:50:26.405Z,17.87
2019-03-09T13:53:03.652Z,17.70
2019-03-09T13:55:40.902Z,17.20
2019-03-09T13:58:21.794Z,17.47
2019-03-09T14:01:01.739Z,20.17
2019-03-09T14:03:47.101Z,20.45
2019-03-09T14:06:29.304Z,20.03
2019-03-09T14:12:22.454Z,20.63
2019-03-09T14:14:34.128Z,21.03
2019-03-09T14:17:09.494Z,21.50
2019-03-09T14:19:44.875Z,21.90
2019-03-09T14:22:21.026Z,20.80
2019-03-09T14:25:01.290Z,22.10
2019-03-09T14:27:36.664Z,21.10
2019-03-09T14:30:27.160Z,18.60
2019-03-09T14:33:02.572Z,19.67
2019-03-09T14:35:43.589Z,18.93
2019-03-09T14:41:17.487Z,18.43
2019-03-09T14:43:54.283Z,18.15
2019-03-09T14:46:33.581Z,17.43
2019-03-09T14:49:10.025Z,18.17
2019-03-09T14:51:46.511Z,18.02
2019-03-09T14:54:21.856Z,17.30
2019-03-09T14:57:02.223Z,17.52
2019-03-09T14:59:42.019Z,18.47
2019-03-09T15:02:22.900Z,17.13
2019-03-09T15:04:58.749Z,17.70
2019-03-09T15:07:38.185Z,18.20
2019-03-09T15:10:17.363Z,17.73
2019-03-09T15:12:52.829Z,19.60
2019-03-09T15:15:31.568Z,17.83
2019-03-09T15:18:06.895Z,18.47
2019-03-09T15:23:37.227Z,18.43
2019-03-09T15:26:12.360Z,18.43
2019-03-09T15:28:49.400Z,19.20
2019-03-09T15:31:24.657Z,18.57
2019-03-09T15:34:00.196Z,18.37
2019-03-09T15:36:36.630Z,18.83
2019-03-09T15:39:13.315Z,17.73
2019-03-09T15:41:49.266Z,17.63
2019-03-09T15:44:26.038Z,17.73
2019-03-09T15:47:01.094Z,18.77
2019-03-09T15:49:41.368Z,17.47
2019-03-09T15:52:18.132Z,17.37
2019-03-09T15:54:53.670Z,17.73
2019-03-09T15:57:27.866Z,17.67
2019-03-09T16:00:01.738Z,17.53
2019-03-09T16:02:35.541Z,17.33
2019-03-09T16:05:09.347Z,16.87
2019-03-09T16:07:43.027Z,16.65
2019-03-09T16:10:21.466Z,16.43
2019-03-09T16:12:56.268Z,16.23
2019-03-09T16:15:35.511Z,16.17
2019-03-09T16:18:10.403Z,16.40
2019-03-09T16:20:45.951Z,15.83
2019-03-09T16:23:22.193Z,16.00
2019-03-09T16:25:58.519Z,15.83
2019-03-09T16:28:33.332Z,15.60
2019-03-09T16:31:09.377Z,15.33
2019-03-09T16:33:44.256Z,15.13
2019-03-09T16:36:19.031Z,16.05
2019-03-09T16:38:53.807Z,15.67
2019-03-09T16:41:28.714Z,14.83
2019-03-09T16:44:03.783Z,15.23
2019-03-09T16:46:38.617Z,15.20
2019-03-09T16:49:16.458Z,14.60
2019-03-09T16:51:52.506Z,14.80
2019-03-09T16:54:29.076Z,15.27
2019-03-09T16:57:03.884Z,14.70
2019-03-09T16:59:40.140Z,16.27
2019-03-09T17:02:14.679Z,15.53
2019-03-09T17:04:49.326Z,15.17
2019-03-09T17:07:24.300Z,15.23
2019-03-09T17:09:58.180Z,16.17
2019-03-09T17:12:32.026Z,15.60
2019-03-09T17:15:08.758Z,15.30
2019-03-09T17:17:43.966Z,15.43
2019-03-09T17:20:20.217Z,16.27
2019-03-09T17:22:54.727Z,16.13
2019-03-09T17:25:30.618Z,16.13
2019-03-09T17:28:06.600Z,16.63
2019-03-09T17:30:41.351Z,16.80
2019-03-09T17:33:17.521Z,16.60
2019-03-09T17:35:54.640Z,16.73
2019-03-09T17:38:29.037Z,17.33
2019-03-09T17:41:07.587Z,18.13
2019-03-09T17:43:41.835Z,16.73
2019-03-09T17:46:15.926Z,17.37
2019-03-09T17:48:51.975Z,16.57
2019-03-09T17:51:26.103Z,17.65
2019-03-09T17:53:59.999Z,16.93
2019-03-09T17:56:35.710Z,16.73
2019-03-09T17:59:11.657Z,16.57
2019-03-09T18:01:46.438Z,17.50
2019-03-09T18:04:20.278Z,17.77
2019-03-09T18:06:54.911Z,17.53
2019-03-09T18:09:31.437Z,16.80
2019-03-09T18:12:07.993Z,17.07
2019-03-09T18:14:42.286Z,16.10
2019-03-09T18:17:18.923Z,17.82
2019-03-09T18:19:53.998Z,16.57
2019-03-09T18:22:29.459Z,16.87
2019-03-09T18:25:03.356Z,17.60
2019-03-09T18:27:37.497Z,17.65
2019-03-09T18:30:13.487Z,17.13
2019-03-09T18:32:47.970Z,19.03
2019-03-09T18:35:23.981Z,18.02
2019-03-09T18:38:00.103Z,18.53
2019-03-09T18:40:34.155Z,17.87
2019-03-09T18:43:08.030Z,18.83
2019-03-09T18:45:42.045Z,19.37
2019-03-09T18:48:19.919Z,18.70
2019-03-09T18:50:55.332Z,19.13
2019-03-09T18:53:28.919Z,19.30
2019-03-09T18:56:03.730Z,19.50
2019-03-09T18:58:37.109Z,20.00
2019-03-09T19:01:10.538Z,20.40
2019-03-09T19:03:43.825Z,20.40
2019-03-09T19:06:17.549Z,20.03
2019-03-09T19:08:50.949Z,20.82
2019-03-09T19:11:25.525Z,21.27
2019-03-09T19:13:58.714Z,21.07
2019-03-09T19:16:31.995Z,21.15
2019-03-09T19:19:05.194Z,22.58
2019-03-09T19:21:38.487Z,22.07
2019-03-09T19:24:11.709Z,23.27
2019-03-09T19:26:45.002Z,27.00
2019-03-09T19:29:18.244Z,26.17
2019-03-09T19:31:51.650Z,23.70
2019-03-09T19:34:24.938Z,23.10
2019-03-09T19:36:58.225Z,22.53
2019-03-09T19:39:31.563Z,23.53
2019-03-09T19:42:04.788Z,23.37
2019-03-09T19:44:38.225Z,23.27
2019-03-09T19:47:11.637Z,22.60
2019-03-09T19:49:44.901Z,23.37
2019-03-09T19:52:19.736Z,24.07
2019-03-09T19:54:52.949Z,24.77
2019-03-09T19:57:26.164Z,25.47
2019-03-09T19:59:59.417Z,27.57
2019-03-09T20:02:34.293Z,26.73
2019-03-09T20:05:09.405Z,26.17
2019-03-09T20:07:42.862Z,27.13
2019-03-09T20:10:23.801Z,24.93
2019-03-09T20:12:58.541Z,25.57
2019-03-09T20:15:32.061Z,26.27
2019-03-09T20:18:05.384Z,25.70
2019-03-09T20:20:38.673Z,26.35
2019-03-09T20:23:13.219Z,25.77
2019-03-09T20:25:46.632Z,24.33
2019-03-09T20:28:19.989Z,25.87
2019-03-09T20:30:53.281Z,25.77
2019-03-09T20:33:26.600Z,26.85
2019-03-09T20:35:59.880Z,26.47
2019-03-09T20:38:33.063Z,25.67
2019-03-09T20:41:08.071Z,27.27
2019-03-09T20:43:41.367Z,26.47
2019-03-09T20:46:14.585Z,27.57
2019-03-09T20:48:49.389Z,27.50
2019-03-09T20:51:22.786Z,28.30
2019-03-09T20:53:56.086Z,27.00
2019-03-09T20:56:29.545Z,28.23
2019-03-09T20:59:02.899Z,29.80
2019-03-09T21:04:17.968Z,29.17
2019-03-09T21:06:52.153Z,29.05
2019-03-09T21:09:25.386Z,28.90
2019-03-09T21:11:58.695Z,29.20
2019-03-09T21:14:33.837Z,27.43
2019-03-09T21:17:07.392Z,27.75
2019-03-09T21:19:40.588Z,29.23
2019-03-09T21:22:14.047Z,28.13
2019-03-09T21:24:47.301Z,28.27
2019-03-09T21:27:20.562Z,29.03
2019-03-09T21:29:53.869Z,28.83
2019-03-09T21:32:27.135Z,29.65
2019-03-09T21:35:03.817Z,28.30
2019-03-09T21:37:37.227Z,29.30
2019-03-09T21:40:11.124Z,30.30
2019-03-09T21:42:44.385Z,30.83
2019-03-09T21:45:18.136Z,30.50
2019-03-09T21:47:51.506Z,30.93
2019-03-09T21:50:24.943Z,29.30
2019-03-09T21:52:59.202Z,29.83
2019-03-09T21:55:32.587Z,29.77
2019-03-09T21:58:05.932Z,29.15
2019-03-09T22:00:39.255Z,31.17
2019-03-09T22:03:12.680Z,29.83
2019-03-09T22:05:45.907Z,31.60
2019-03-09T22:08:19.271Z,31.97
2019-03-09T22:10:53.164Z,30.45
2019-03-09T22:13:26.515Z,31.97
2019-03-09T22:15:59.754Z,32.70
2019-03-09T22:18:36.296Z,31.87
2019-03-09T22:21:11.850Z,31.13
2019-03-09T22:23:44.465Z,30.60
2019-03-09T22:26:18.117Z,31.77
2019-03-09T22:28:51.460Z,31.27
2019-03-09T22:31:28.124Z,31.00
2019-03-09T22:34:06.230Z,32.90
2019-03-09T22:36:40.765Z,31.77
2019-03-09T22:39:15.322Z,32.00
2019-03-09T22:41:50.228Z,32.07
2019-03-09T22:44:23.548Z,32.43
2019-03-09T22:46:58.906Z,30.80
2019-03-09T22:49:32.241Z,32.07
2019-03-09T22:52:05.506Z,32.90
2019-03-09T22:54:39.166Z,32.53
2019-03-09T22:57:12.569Z,33.33
2019-03-09T22:59:45.894Z,32.17
2019-03-09T23:02:20.578Z,31.77
2019-03-09T23:04:58.139Z,31.27
2019-03-09T23:07:31.433Z,31.45
2019-03-09T23:10:06.281Z,32.73
2019-03-09T23:12:42.274Z,32.60
2019-03-09T23:15:19.835Z,31.47
2019-03-09T23:17:53.929Z,33.38
2019-03-09T23:20:28.166Z,32.63
2019-03-09T23:23:03.189Z,32.50
2019-03-09T23:25:38.447Z,33.40
2019-03-09T23:28:12.303Z,33.23
2019-03-09T23:30:46.002Z,33.87
2019-03-09T23:33:21.553Z,32.97
2019-03-09T23:35:55.904Z,31.10
2019-03-09T23:38:30.686Z,31.37
2019-03-09T23:41:06.132Z,30.77
2019-03-09T23:43:40.416Z,31.43
2019-03-09T23:46:14.525Z,30.93
2019-03-09T23:48:50.335Z,29.10
2019-03-09T23:51:25.826Z,26.07
2019-03-09T23:54:01.221Z,26.90
2019-03-09T23:56:35.215Z,26.30
2019-03-09T23:59:17.833Z,27.35
